createdAt,value
2018-01-06T00:01:27.988Z,14.63
2018-01-06T00:07:32.589Z,19.77
2018-01-06T00:13:36.259Z,13.30
2018-01-06T00:19:39.698Z,11.80
2018-01-06T00:25:43.207Z,11.10
2018-01-06T00:31:46.954Z,7.83
2018-01-06T00:37:50.413Z,27.63
2018-01-06T00:43:54.171Z,14.37
2018-01-06T00:49:58.607Z,11.53
2018-01-06T00:56:02.235Z,9.63
2018-01-06T01:02:05.833Z,9.87
2018-01-06T01:08:09.285Z,7.40
2018-01-06T01:14:12.992Z,10.63
2018-01-06T01:20:16.483Z,13.93
2018-01-06T01:26:19.992Z,7.33
2018-01-06T01:32:23.790Z,13.67
2018-01-06T01:38:27.762Z,7.47
2018-01-06T01:44:31.326Z,9.70
2018-01-06T01:50:35.068Z,7.10
2018-01-06T01:56:38.511Z,19.47
2018-01-06T02:02:42.933Z,11.00
2018-01-06T02:08:46.526Z,11.13
2018-01-06T02:14:50.021Z,12.40
2018-01-06T02:20:53.996Z,15.10
2018-01-06T02:26:58.675Z,11.23
2018-01-06T02:33:02.311Z,8.53
2018-01-06T02:39:05.937Z,5.93
2018-01-06T02:45:09.410Z,7.73
2018-01-06T02:51:13.103Z,7.33
2018-01-06T02:57:16.708Z,6.30
2018-01-06T03:03:20.196Z,9.70
2018-01-06T03:09:23.957Z,12.37
2018-01-06T03:15:28.309Z,13.90
2018-01-06T03:21:31.861Z,8.93
2018-01-06T03:27:36.088Z,8.77
2018-01-06T03:33:39.608Z,12.97
2018-01-06T03:39:43.138Z,9.90
2018-01-06T03:45:47.495Z,15.10
2018-01-06T03:58:01.482Z,7.20
2018-01-06T04:04:05.854Z,8.70
2018-01-06T04:10:09.303Z,6.00
2018-01-06T04:16:13.688Z,7.47
2018-01-06T04:22:17.941Z,3.80
2018-01-06T04:28:21.441Z,5.33
2018-01-06T04:34:25.208Z,5.57
2018-01-06T04:40:29.031Z,11.70
2018-01-06T04:46:33.563Z,10.73
2018-01-06T04:52:37.148Z,4.20
2018-01-06T04:58:40.696Z,14.20
2018-01-06T05:04:44.334Z,7.67
2018-01-06T05:10:47.862Z,11.73
2018-01-06T05:16:51.677Z,17.73
2018-01-06T05:22:57.602Z,8.53
2018-01-06T05:29:01.146Z,9.80
2018-01-06T05:35:04.835Z,11.60
2018-01-06T05:41:08.766Z,7.57
2018-01-06T05:47:13.041Z,11.33
2018-01-06T05:53:16.743Z,6.50
2018-01-06T05:59:20.254Z,10.80
2018-01-06T06:05:24.184Z,15.43
2018-01-06T06:11:28.582Z,6.20
2018-01-06T06:17:32.253Z,9.27
2018-01-06T06:23:36.768Z,16.17
2018-01-06T06:29:41.032Z,11.00
2018-01-06T06:35:45.503Z,8.77
2018-01-06T06:41:49.725Z,13.17
2018-01-06T06:47:53.955Z,9.90
2018-01-06T06:53:57.476Z,12.13
2018-01-06T07:00:00.948Z,15.83
2018-01-06T07:06:04.456Z,9.53
2018-01-06T07:12:07.928Z,7.17
2018-01-06T07:18:11.353Z,9.70
2018-01-06T07:24:15.128Z,14.93
2018-01-06T07:30:18.635Z,7.80
2018-01-06T07:36:22.147Z,14.20
2018-01-06T07:42:25.666Z,6.47
2018-01-06T07:48:29.679Z,9.70
2018-01-06T07:54:33.293Z,5.60
2018-01-06T08:00:36.801Z,4.63
2018-01-06T08:06:41.274Z,10.47
2018-01-06T08:12:45.555Z,16.87
2018-01-06T08:18:49.783Z,10.33
2018-01-06T08:24:53.560Z,5.30
2018-01-06T08:30:58.172Z,14.57
2018-01-06T08:37:02.426Z,14.20
2018-01-06T08:43:05.871Z,7.70
2018-01-06T08:49:09.407Z,10.43
2018-01-06T08:55:12.878Z,4.40
2018-01-06T09:01:16.463Z,7.10
2018-01-06T09:07:19.940Z,8.10
2018-01-06T09:13:23.419Z,10.13
2018-01-06T09:19:27.798Z,9.90
2018-01-06T09:25:31.397Z,5.20
2018-01-06T09:31:35.714Z,13.03
2018-01-06T09:37:39.359Z,13.70
2018-01-06T09:43:42.914Z,12.40
2018-01-06T09:49:46.349Z,9.03
2018-01-06T09:55:50.587Z,12.77
2018-01-06T10:01:54.034Z,9.53
2018-01-06T10:07:58.099Z,16.27
2018-01-06T10:14:01.637Z,8.73
2018-01-06T10:20:05.249Z,11.03
2018-01-06T10:26:08.737Z,13.10
2018-01-06T10:32:12.311Z,8.20
2018-01-06T10:38:15.836Z,6.63
2018-01-06T10:44:19.328Z,7.20
2018-01-06T10:50:22.898Z,6.33
2018-01-06T10:56:26.880Z,17.20
2018-01-06T11:02:30.664Z,8.03
2018-01-06T11:08:34.117Z,8.57
2018-01-06T11:14:37.763Z,8.63
2018-01-06T11:20:41.241Z,8.90
2018-01-06T11:26:44.773Z,11.13
2018-01-06T11:32:48.317Z,12.93
2018-01-06T11:38:52.517Z,9.83
2018-01-06T11:44:58.029Z,13.90
2018-01-06T11:51:01.489Z,17.60
2018-01-06T11:57:04.984Z,6.20
2018-01-06T12:03:10.012Z,11.63
2018-01-06T12:09:13.520Z,9.70
2018-01-06T12:15:16.957Z,9.07
2018-01-06T12:21:20.427Z,11.07
2018-01-06T12:27:25.166Z,10.60
2018-01-06T12:33:28.716Z,6.53
2018-01-06T12:39:32.312Z,7.00
2018-01-06T12:45:35.754Z,11.97
2018-01-06T12:51:39.218Z,7.63
2018-01-06T12:57:42.794Z,7.83
2018-01-06T13:03:46.410Z,13.77
2018-01-06T13:09:50.001Z,11.47
2018-01-06T13:15:53.554Z,9.93
2018-01-06T13:21:57.769Z,11.27
2018-01-06T13:28:01.374Z,7.87
2018-01-06T13:34:05.672Z,9.17
2018-01-06T13:40:09.936Z,6.27
2018-01-06T13:46:14.190Z,4.40
2018-01-06T13:52:17.794Z,5.57
2018-01-06T13:58:21.307Z,5.83
2018-01-06T14:04:25.336Z,10.27
2018-01-06T14:10:29.150Z,8.53
2018-01-06T14:16:32.652Z,9.70
2018-01-06T14:22:36.166Z,8.10
2018-01-06T14:28:41.189Z,10.90
2018-01-06T14:34:44.640Z,5.20
2018-01-06T14:40:48.740Z,5.83
2018-01-06T14:46:52.400Z,7.87
2018-01-06T14:52:57.494Z,17.47
2018-01-06T14:59:01.112Z,13.50
2018-01-06T15:05:04.919Z,12.47
2018-01-06T15:11:08.383Z,13.03
2018-01-06T15:17:12.019Z,8.30
2018-01-06T15:23:15.494Z,10.57
2018-01-06T15:29:19.079Z,13.60
2018-01-06T15:35:22.837Z,15.37
2018-01-06T15:41:26.486Z,24.67
2018-01-06T15:47:30.466Z,10.90
2018-01-06T15:53:34.025Z,11.73
2018-01-06T15:59:37.490Z,11.40
2018-01-06T16:05:41.716Z,15.97
2018-01-06T16:11:45.930Z,8.07
2018-01-06T16:17:49.438Z,16.87
2018-01-06T16:23:53.123Z,9.53
2018-01-06T16:29:57.692Z,8.30
2018-01-06T16:36:01.313Z,15.20
2018-01-06T16:42:05.081Z,5.63
2018-01-06T16:48:09.603Z,13.33
2018-01-06T16:54:13.155Z,13.93
2018-01-06T17:00:16.839Z,18.43
2018-01-06T17:06:20.645Z,13.23
2018-01-06T17:12:24.588Z,20.43
2018-01-06T17:18:28.544Z,13.00
2018-01-06T17:24:32.126Z,14.10
2018-01-06T17:30:35.610Z,14.70
2018-01-06T17:36:39.095Z,6.60
2018-01-06T17:42:43.532Z,10.57
2018-01-06T17:48:47.768Z,10.77
2018-01-06T17:54:51.378Z,12.40
2018-01-06T18:00:55.161Z,13.10
2018-01-06T18:06:58.845Z,30.60
2018-01-06T18:13:02.320Z,28.40
2018-01-06T18:19:06.618Z,18.73
2018-01-06T18:25:10.108Z,18.03
2018-01-06T18:31:13.617Z,17.17
2018-01-06T18:37:17.890Z,22.63
2018-01-06T18:43:21.337Z,20.97
2018-01-06T18:49:26.044Z,15.40
2018-01-06T18:55:29.586Z,24.70
2018-01-06T19:01:33.035Z,27.40
2018-01-06T19:07:36.590Z,22.33
2018-01-06T19:13:40.062Z,23.13
2018-01-06T19:19:43.565Z,21.03
2018-01-06T19:25:47.007Z,36.20
2018-01-06T19:31:50.677Z,25.90
2018-01-06T19:37:55.272Z,26.50
2018-01-06T19:43:58.756Z,25.70
2018-01-06T19:50:02.209Z,31.13
2018-01-06T19:56:05.670Z,21.90
2018-01-06T20:02:09.172Z,22.50
2018-01-06T20:08:12.650Z,27.50
2018-01-06T20:14:16.930Z,30.23
2018-01-06T20:20:20.478Z,35.80
2018-01-06T20:26:24.722Z,38.87
2018-01-06T20:32:28.945Z,38.60
2018-01-06T20:38:32.752Z,30.67
2018-01-06T20:44:36.238Z,31.03
2018-01-06T20:50:39.846Z,35.77
2018-01-06T20:56:43.323Z,48.17
2018-01-06T21:02:48.297Z,27.00
2018-01-06T21:08:51.907Z,38.63
2018-01-06T21:14:55.483Z,39.40
2018-01-06T21:20:59.145Z,32.67
2018-01-06T21:27:02.744Z,33.90
2018-01-06T21:33:06.995Z,31.23
2018-01-06T21:39:10.601Z,34.43
2018-01-06T21:45:14.173Z,34.97
2018-01-06T21:51:17.720Z,34.40
2018-01-06T21:57:21.219Z,33.50
2018-01-06T22:03:24.716Z,44.77
2018-01-06T22:09:28.653Z,49.47
2018-01-06T22:15:32.254Z,54.90
2018-01-06T22:21:35.745Z,64.30
2018-01-06T22:27:39.188Z,50.87
2018-01-06T22:33:42.707Z,57.07
2018-01-06T22:39:46.351Z,40.13
2018-01-06T22:45:49.968Z,52.20
2018-01-06T22:51:53.466Z,37.90
2018-01-06T22:57:58.145Z,44.73
2018-01-06T23:04:01.728Z,36.00
2018-01-06T23:10:05.250Z,31.07
2018-01-06T23:16:09.639Z,34.77
2018-01-06T23:22:13.142Z,37.97
2018-01-06T23:28:16.904Z,40.90
2018-01-06T23:34:20.428Z,37.57
2018-01-06T23:40:24.580Z,49.00
2018-01-06T23:46:28.381Z,27.90
2018-01-06T23:52:32.892Z,25.43
2018-01-06T23:58:37.329Z,23.73
